Time;durP1;ratioP1;P1;durP2;ratioP2;P2;SDS_P1;SDS_P2;PMS_P1;PMS_P2;Temp;Humidity;BMP_temperature;BMP_pressure;BME280_temperature;BME280_humidity;BME280_pressure;Samples;Min_cycle;Max_cycle;Signal;HPM_P1;HPM_P2
2021/07/15 00:00:19;;;;;;;0.30;0.30;;;17.00;99.90;;;;;;5033775;28;20468;-73
2021/07/15 00:02:45;;;;;;;0.40;0.30;;;16.90;99.90;;;;;;5033385;28;20436;-73
2021/07/15 00:05:13;;;;;;;0.40;0.40;;;16.80;99.90;;;;;;5033687;28;20425;-72
2021/07/15 00:07:39;;;;;;;0.30;0.30;;;16.70;99.90;;;;;;5033734;28;20269;-73
2021/07/15 00:10:18;;;;;;;0.30;0.30;;;16.60;99.90;;;;;;5033915;28;20873;-72
2021/07/15 00:12:48;;;;;;;0.40;0.40;;;16.50;99.90;;;;;;5033781;28;20427;-72
2021/07/15 00:15:16;;;;;;;0.40;0.40;;;16.40;99.90;;;;;;5033209;28;20440;-71
2021/07/15 00:17:42;;;;;;;0.40;0.40;;;16.30;99.90;;;;;;5033147;28;20387;-72
2021/07/15 00:20:12;;;;;;;0.50;0.50;;;16.30;99.90;;;;;;5033792;28;20437;-72
2021/07/15 00:22:38;;;;;;;0.50;0.50;;;16.20;99.90;;;;;;5033503;28;20192;-72
2021/07/15 00:25:18;;;;;;;0.53;0.53;;;16.20;99.90;;;;;;5033568;28;20473;-72
2021/07/15 00:27:44;;;;;;;0.63;0.40;;;16.20;99.90;;;;;;5032210;28;20402;-71
2021/07/15 00:30:11;;;;;;;0.40;0.40;;;16.20;99.90;;;;;;5033493;28;20421;-71
2021/07/15 00:32:39;;;;;;;0.83;0.50;;;16.10;99.90;;;;;;5034533;28;20472;-71
2021/07/15 00:35:07;;;;;;;0.70;0.40;;;16.10;99.90;;;;;;5035321;28;20425;-71
2021/07/15 00:37:32;;;;;;;0.33;0.33;;;16.10;99.90;;;;;;5033216;28;20537;-71
2021/07/15 00:39:58;;;;;;;0.40;0.37;;;16.10;99.90;;;;;;5033456;28;20557;-72
2021/07/15 00:42:24;;;;;;;0.40;0.40;;;16.00;99.90;;;;;;5033623;28;20193;-73
2021/07/15 00:44:50;;;;;;;0.53;0.53;;;16.00;99.90;;;;;;5032952;28;20210;-72
2021/07/15 00:47:16;;;;;;;0.40;0.37;;;16.00;99.90;;;;;;5032976;28;20685;-74
2021/07/15 00:49:41;;;;;;;0.30;0.30;;;16.00;99.90;;;;;;5033541;28;20914;-73
2021/07/15 00:52:11;;;;;;;0.40;0.40;;;16.00;99.90;;;;;;5032918;28;20607;-73
2021/07/15 00:54:42;;;;;;;0.30;0.30;;;15.90;99.90;;;;;;5033397;28;20573;-74
2021/07/15 00:57:08;;;;;;;0.30;0.30;;;15.90;99.90;;;;;;5032936;28;20397;-73
2021/07/15 00:59:34;;;;;;;0.70;0.40;;;15.80;99.90;;;;;;5032500;28;20821;-73
2021/07/15 01:02:00;;;;;;;0.50;0.40;;;15.80;99.90;;;;;;5033219;28;20401;-74
2021/07/15 01:04:26;;;;;;;0.60;0.33;;;15.80;99.90;;;;;;5032499;28;20469;-74
2021/07/15 01:06:51;;;;;;;0.40;0.33;;;15.80;99.90;;;;;;5031956;28;20417;-73
2021/07/15 01:09:17;;;;;;;0.40;0.30;;;15.70;99.90;;;;;;5032621;28;20627;-73
2021/07/15 01:11:55;;;;;;;0.30;0.30;;;15.70;99.90;;;;;;5032577;28;20656;-73
2021/07/15 01:14:27;;;;;;;0.30;0.30;;;15.70;99.90;;;;;;5033617;28;20182;-73
2021/07/15 01:16:55;;;;;;;0.40;0.37;;;15.60;99.90;;;;;;5033239;28;20393;-71
2021/07/15 01:19:58;;;;;;;0.30;0.30;;;15.60;99.90;;;;;;5032878;28;20401;-72
2021/07/15 01:22:49;;;;;;;0.40;0.40;;;15.60;99.90;;;;;;5032866;28;20410;-74
2021/07/15 01:25:15;;;;;;;0.40;0.30;;;15.60;99.90;;;;;;5033191;28;20431;-74
2021/07/15 01:27:49;;;;;;;0.50;0.40;;;15.60;99.90;;;;;;5032535;28;20376;-73
2021/07/15 01:30:18;;;;;;;0.40;0.30;;;15.60;99.90;;;;;;5033412;28;20224;-71
2021/07/15 01:33:06;;;;;;;0.40;0.33;;;15.60;99.90;;;;;;5032914;28;20463;-72
2021/07/15 01:35:52;;;;;;;0.50;0.50;;;15.60;99.90;;;;;;5035199;28;20464;-72
2021/07/15 01:38:22;;;;;;;0.30;0.30;;;15.60;99.90;;;;;;5034865;28;20420;-72
2021/07/15 01:40:57;;;;;;;0.30;0.30;;;15.60;99.90;;;;;;5036451;28;20758;-71
2021/07/15 01:43:35;;;;;;;0.50;0.37;;;15.60;99.90;;;;;;5036839;28;20393;-71
2021/07/15 01:46:03;;;;;;;0.40;0.40;;;15.60;99.90;;;;;;5036645;28;20924;-72
2021/07/15 01:48:30;;;;;;;0.57;0.40;;;15.60;99.90;;;;;;5036012;28;20395;-72
2021/07/15 01:50:56;;;;;;;0.30;0.30;;;15.60;99.90;;;;;;5035982;28;20923;-73
2021/07/15 01:53:22;;;;;;;0.60;0.40;;;15.70;99.90;;;;;;5036219;28;20711;-73
2021/07/15 01:55:49;;;;;;;0.40;0.30;;;15.60;99.90;;;;;;5036362;28;20379;-71
2021/07/15 01:58:15;;;;;;;0.30;0.30;;;15.60;99.90;;;;;;5034516;28;20472;-72
2021/07/15 02:00:41;;;;;;;0.40;0.30;;;15.60;99.90;;;;;;5036225;28;20931;-73
2021/07/15 02:03:09;;;;;;;0.30;0.30;;;15.60;99.90;;;;;;5034980;28;20178;-72
2021/07/15 02:05:37;;;;;;;0.40;0.30;;;15.70;99.90;;;;;;5035397;28;20452;-73
2021/07/15 02:08:04;;;;;;;0.40;0.40;;;15.70;99.90;;;;;;5035532;28;20379;-72
2021/07/15 02:10:32;;;;;;;0.40;0.40;;;15.60;99.90;;;;;;5034701;28;20422;-74
2021/07/15 02:12:58;;;;;;;0.30;0.30;;;15.60;99.90;;;;;;5034438;28;20428;-74
2021/07/15 02:15:28;;;;;;;0.30;0.30;;;15.70;99.90;;;;;;5035965;28;21053;-74
2021/07/15 02:17:56;;;;;;;0.30;0.30;;;15.60;99.90;;;;;;5035446;28;20737;-74
2021/07/15 02:20:24;;;;;;;0.50;0.30;;;15.60;99.90;;;;;;5035465;28;20417;-73
2021/07/15 02:22:52;;;;;;;0.30;0.30;;;15.70;99.90;;;;;;5035753;28;20440;-73
2021/07/15 02:25:20;;;;;;;1.33;0.33;;;15.70;99.90;;;;;;5035506;28;20432;-73
2021/07/15 02:27:47;;;;;;;0.40;0.40;;;15.70;99.90;;;;;;5035139;28;20478;-74
2021/07/15 02:30:16;;;;;;;0.30;0.30;;;15.70;99.90;;;;;;5035764;28;20391;-73
2021/07/15 02:32:51;;;;;;;0.40;0.40;;;15.70;99.90;;;;;;5035567;28;20456;-74
2021/07/15 02:35:18;;;;;;;0.30;0.27;;;15.70;99.90;;;;;;5015659;28;20421;-73
2021/07/15 02:37:45;;;;;;;0.30;0.30;;;15.70;99.90;;;;;;5014002;28;20392;-73
2021/07/15 02:40:13;;;;;;;0.30;0.30;;;15.80;99.90;;;;;;5015685;28;20410;-73
2021/07/15 02:42:44;;;;;;;0.40;0.40;;;15.70;99.90;;;;;;5032069;28;20424;-73
2021/07/15 02:45:14;;;;;;;0.97;0.40;;;15.70;99.90;;;;;;5035094;28;20432;-74
2021/07/15 02:47:42;;;;;;;2.10;0.30;;;15.70;99.90;;;;;;5035287;28;20437;-73
2021/07/15 02:50:10;;;;;;;0.70;0.53;;;15.70;99.90;;;;;;5035545;28;20420;-73
2021/07/15 02:52:36;;;;;;;0.30;0.30;;;15.80;99.90;;;;;;5035310;28;20423;-73
2021/07/15 02:55:03;;;;;;;0.60;0.40;;;15.80;99.90;;;;;;5034933;28;20810;-74
2021/07/15 02:57:48;;;;;;;0.30;0.30;;;15.80;99.90;;;;;;5034801;28;20409;-73
2021/07/15 03:00:16;;;;;;;0.30;0.20;;;15.80;99.90;;;;;;5034909;28;20389;-73
2021/07/15 03:02:58;;;;;;;0.40;0.40;;;15.80;99.90;;;;;;5034886;28;20890;-73
2021/07/15 03:05:28;;;;;;;0.40;0.30;;;15.80;99.90;;;;;;5034919;28;20438;-74
2021/07/15 03:08:00;;;;;;;0.30;0.30;;;15.90;99.90;;;;;;5034403;28;20408;-73
2021/07/15 03:10:27;;;;;;;0.30;0.20;;;15.90;99.90;;;;;;5034559;28;20479;-73
2021/07/15 03:12:55;;;;;;;1.10;0.50;;;15.90;99.90;;;;;;5034649;28;20431;-73
2021/07/15 03:15:21;;;;;;;0.50;0.40;;;15.90;99.90;;;;;;5034748;28;20453;-73
2021/07/15 03:17:49;;;;;;;0.30;0.30;;;15.90;99.90;;;;;;5033153;28;20399;-73
2021/07/15 03:20:20;;;;;;;0.50;0.30;;;15.90;99.90;;;;;;5034770;28;20376;-73
2021/07/15 03:22:51;;;;;;;0.40;0.40;;;15.90;99.90;;;;;;5033642;28;20379;-73
2021/07/15 03:25:20;;;;;;;0.50;0.50;;;15.90;99.90;;;;;;5034316;28;20420;-73
2021/07/15 03:27:48;;;;;;;0.50;0.50;;;15.90;99.90;;;;;;5034378;28;20383;-73
2021/07/15 03:30:15;;;;;;;0.30;0.20;;;15.90;99.90;;;;;;5034456;28;20407;-73
2021/07/15 03:32:44;;;;;;;0.30;0.30;;;16.00;99.90;;;;;;5034419;28;20466;-73
2021/07/15 03:35:10;;;;;;;0.30;0.30;;;15.90;99.90;;;;;;5034394;28;20429;-74
2021/07/15 03:37:38;;;;;;;0.30;0.30;;;16.00;99.90;;;;;;5032607;28;20424;-74
2021/07/15 03:40:04;;;;;;;0.30;0.30;;;16.00;99.90;;;;;;5034108;28;20421;-74
2021/07/15 03:42:31;;;;;;;0.30;0.30;;;16.00;99.90;;;;;;5033845;28;20440;-74
2021/07/15 03:44:59;;;;;;;0.40;0.40;;;16.00;99.90;;;;;;5034261;28;20433;-73
2021/07/15 03:47:25;;;;;;;0.30;0.30;;;16.00;99.90;;;;;;5032627;28;20785;-73
2021/07/15 03:49:51;;;;;;;3.70;0.60;;;15.90;99.90;;;;;;5033909;28;20426;-73
2021/07/15 03:52:18;;;;;;;0.30;0.30;;;15.90;99.90;;;;;;5032626;28;21092;-73
2021/07/15 03:54:46;;;;;;;0.30;0.30;;;15.90;99.90;;;;;;5033644;28;20492;-73
2021/07/15 03:57:14;;;;;;;0.53;0.40;;;15.90;99.90;;;;;;5033134;28;20492;-73
2021/07/15 03:59:44;;;;;;;0.57;0.30;;;16.00;99.90;;;;;;5034113;28;20395;-74
2021/07/15 04:02:12;;;;;;;0.40;0.30;;;15.90;99.90;;;;;;5033661;28;20440;-73
2021/07/15 04:04:41;;;;;;;0.30;0.30;;;15.90;99.90;;;;;;5032547;28;20456;-73
2021/07/15 04:07:07;;;;;;;0.40;0.40;;;16.00;99.90;;;;;;5033644;28;20501;-74
2021/07/15 04:09:35;;;;;;;0.30;0.20;;;16.00;99.90;;;;;;5033643;28;20447;-73
2021/07/15 04:12:02;;;;;;;0.30;0.30;;;16.00;99.90;;;;;;5033816;28;20424;-73
2021/07/15 04:15:00;;;;;;;0.30;0.30;;;16.00;99.90;;;;;;5033518;28;20428;-73
2021/07/15 04:17:30;;;;;;;0.30;0.30;;;16.10;99.90;;;;;;4999591;28;20935;-74
2021/07/15 04:19:59;;;;;;;0.40;0.30;;;16.10;99.90;;;;;;5033819;28;20974;-74
2021/07/15 04:22:28;;;;;;;0.30;0.30;;;16.20;99.90;;;;;;5033409;28;20460;-73
2021/07/15 04:24:55;;;;;;;0.50;0.30;;;16.20;99.90;;;;;;5032084;28;20488;-74
2021/07/15 04:27:23;;;;;;;0.30;0.30;;;16.30;99.90;;;;;;5033129;28;21000;-73
2021/07/15 04:29:49;;;;;;;0.50;0.40;;;16.30;99.90;;;;;;5032220;28;20396;-75
2021/07/15 04:32:23;;;;;;;0.53;0.30;;;16.30;99.90;;;;;;5031926;28;20933;-72
2021/07/15 04:34:49;;;;;;;1.50;0.40;;;16.30;99.90;;;;;;5031634;28;21076;-73
2021/07/15 04:37:17;;;;;;;0.97;0.63;;;16.30;99.90;;;;;;5032806;28;20400;-72
2021/07/15 04:39:43;;;;;;;0.30;0.30;;;16.30;99.90;;;;;;5033412;28;20428;-72
2021/07/15 04:42:10;;;;;;;0.40;0.30;;;16.20;99.90;;;;;;5032954;28;20432;-72
2021/07/15 04:44:37;;;;;;;0.30;0.30;;;16.20;99.90;;;;;;5033535;28;20500;-74
2021/07/15 04:47:05;;;;;;;0.40;0.40;;;16.10;99.90;;;;;;5034198;28;20442;-74
2021/07/15 04:49:31;;;;;;;0.40;0.40;;;16.10;99.90;;;;;;5034789;28;20437;-73
2021/07/15 04:51:59;;;;;;;0.40;0.40;;;16.10;99.90;;;;;;5034294;28;20439;-73
2021/07/15 04:54:25;;;;;;;0.30;0.30;;;16.10;99.90;;;;;;5033424;28;20482;-72
2021/07/15 04:56:52;;;;;;;0.30;0.30;;;16.10;99.90;;;;;;5033285;28;20425;-71
2021/07/15 04:59:18;;;;;;;0.40;0.30;;;16.10;99.90;;;;;;5033242;28;20435;-74
2021/07/15 05:01:44;;;;;;;3.80;0.30;;;16.10;99.90;;;;;;5032780;28;20861;-74
2021/07/15 05:04:09;;;;;;;0.30;0.20;;;16.10;99.90;;;;;;5031481;28;20479;-73
2021/07/15 05:06:35;;;;;;;0.73;0.50;;;16.20;99.90;;;;;;5031751;28;20818;-72
2021/07/15 05:09:01;;;;;;;0.30;0.20;;;16.20;99.90;;;;;;5033250;28;20592;-74
2021/07/15 05:11:26;;;;;;;0.47;0.47;;;16.20;99.90;;;;;;5035187;28;20202;-73
2021/07/15 05:13:52;;;;;;;0.30;0.30;;;16.30;99.90;;;;;;5035081;28;20265;-73
2021/07/15 05:16:18;;;;;;;0.50;0.50;;;16.30;99.90;;;;;;5033904;28;20173;-73
2021/07/15 05:18:45;;;;;;;1.10;0.40;;;16.30;99.90;;;;;;5036105;28;20181;-72
2021/07/15 05:21:11;;;;;;;0.47;0.47;;;16.30;99.90;;;;;;5036958;28;20928;-73
2021/07/15 05:23:36;;;;;;;1.00;0.30;;;16.30;99.90;;;;;;5036827;28;20421;-74
2021/07/15 05:26:02;;;;;;;1.60;0.40;;;16.40;99.90;;;;;;5036086;28;20179;-73
2021/07/15 05:28:28;;;;;;;0.30;0.30;;;16.50;99.90;;;;;;5036485;28;20226;-72
2021/07/15 05:30:54;;;;;;;0.40;0.40;;;16.50;99.90;;;;;;5036753;28;20202;-74
2021/07/15 05:33:20;;;;;;;0.40;0.40;;;16.60;99.90;;;;;;5036530;28;20816;-73
2021/07/15 05:35:46;;;;;;;0.77;0.77;;;16.50;99.90;;;;;;5036683;28;20401;-73
2021/07/15 05:38:11;;;;;;;0.40;0.30;;;16.60;99.90;;;;;;5036102;28;20179;-73
2021/07/15 05:40:37;;;;;;;0.50;0.40;;;16.60;99.90;;;;;;5036096;28;20232;-73
2021/07/15 05:43:03;;;;;;;0.50;0.50;;;16.70;99.90;;;;;;5036434;28;20501;-73
2021/07/15 05:45:29;;;;;;;0.40;0.33;;;16.70;99.90;;;;;;5036357;28;20282;-72
2021/07/15 05:47:55;;;;;;;1.07;0.50;;;16.70;99.90;;;;;;5034273;28;20432;-73
2021/07/15 05:50:20;;;;;;;0.83;0.53;;;16.80;99.90;;;;;;5036097;28;20181;-73
2021/07/15 05:52:46;;;;;;;1.80;0.60;;;16.80;99.90;;;;;;5035965;28;20303;-73
2021/07/15 05:55:12;;;;;;;0.40;0.40;;;16.80;99.90;;;;;;5034373;28;20204;-73
2021/07/15 05:57:38;;;;;;;0.50;0.50;;;16.90;99.90;;;;;;5035839;28;20420;-73
2021/07/15 06:00:07;;;;;;;0.40;0.40;;;16.90;99.90;;;;;;5036093;28;20398;-72
2021/07/15 06:02:33;;;;;;;0.40;0.30;;;16.90;99.90;;;;;;5035774;28;20414;-73
2021/07/15 06:04:58;;;;;;;0.30;0.30;;;17.00;99.90;;;;;;5035533;28;20811;-73
2021/07/15 06:07:24;;;;;;;0.40;0.40;;;16.90;99.90;;;;;;5034239;28;20556;-74
2021/07/15 06:09:50;;;;;;;0.60;0.60;;;17.00;99.90;;;;;;5035571;28;20187;-73
2021/07/15 06:12:15;;;;;;;0.40;0.20;;;17.00;99.90;;;;;;5035565;28;20208;-73
2021/07/15 06:14:41;;;;;;;0.40;0.20;;;17.10;99.90;;;;;;5035457;28;20275;-73
2021/07/15 06:17:07;;;;;;;0.40;0.30;;;17.10;99.90;;;;;;5034946;28;20167;-73
2021/07/15 06:19:32;;;;;;;0.40;0.40;;;17.10;99.90;;;;;;5035688;28;20233;-72
2021/07/15 06:21:58;;;;;;;0.50;0.50;;;17.10;99.90;;;;;;5035035;28;20212;-72
2021/07/15 06:24:24;;;;;;;2.53;2.20;;;17.10;99.90;;;;;;5035043;28;20543;-73
2021/07/15 06:26:50;;;;;;;0.70;0.50;;;17.20;99.90;;;;;;5028700;28;20398;-73
2021/07/15 06:29:16;;;;;;;0.43;0.43;;;17.10;99.90;;;;;;5032447;28;20184;-72
2021/07/15 06:31:42;;;;;;;0.70;0.40;;;17.10;99.90;;;;;;5035416;28;20684;-72
2021/07/15 06:34:08;;;;;;;0.67;0.67;;;17.20;99.90;;;;;;5034948;28;20460;-73
2021/07/15 06:36:34;;;;;;;1.47;1.37;;;17.30;99.90;;;;;;5033555;28;20446;-72
2021/07/15 06:39:00;;;;;;;0.80;0.80;;;17.50;99.90;;;;;;5034614;28;20990;-72
2021/07/15 06:41:26;;;;;;;5.20;0.67;;;17.70;99.90;;;;;;5033793;28;20444;-71
2021/07/15 06:43:52;;;;;;;0.60;0.40;;;17.90;99.90;;;;;;5035064;28;20473;-70
2021/07/15 06:46:20;;;;;;;0.40;0.40;;;18.20;99.90;;;;;;5035098;28;20863;-71
2021/07/15 06:48:45;;;;;;;1.90;1.17;;;18.30;99.90;;;;;;5034635;28;20405;-71
2021/07/15 06:51:12;;;;;;;0.50;0.30;;;18.50;99.90;;;;;;5027776;28;20936;-72
2021/07/15 06:53:38;;;;;;;0.40;0.40;;;18.60;99.90;;;;;;5032543;28;20198;-67
2021/07/15 06:56:03;;;;;;;1.90;0.97;;;18.60;99.90;;;;;;5033821;28;20441;-67
2021/07/15 06:58:29;;;;;;;0.60;0.40;;;18.60;99.90;;;;;;5034130;28;20193;-68
2021/07/15 07:00:58;;;;;;;0.60;0.60;;;18.60;99.90;;;;;;5034732;28;20404;-65
2021/07/15 07:03:25;;;;;;;1.80;1.10;;;18.70;99.90;;;;;;5034183;28;20457;-67
2021/07/15 07:05:56;;;;;;;14.37;6.90;;;18.70;99.90;;;;;;5034751;28;20178;-72
2021/07/15 07:08:22;;;;;;;5.20;3.03;;;18.70;99.90;;;;;;5034212;28;20407;-66
2021/07/15 07:10:47;;;;;;;0.77;0.77;;;18.70;99.90;;;;;;5034751;28;20475;-66
2021/07/15 07:13:13;;;;;;;2.13;0.67;;;18.70;99.90;;;;;;5034474;28;20208;-66
2021/07/15 07:15:39;;;;;;;1.30;0.77;;;18.80;99.90;;;;;;5034541;28;20166;-67
2021/07/15 07:18:04;;;;;;;0.30;0.30;;;18.80;99.90;;;;;;5033935;28;20166;-67
2021/07/15 07:20:30;;;;;;;1.00;1.00;;;19.00;99.90;;;;;;5034308;28;20177;-66
2021/07/15 07:22:56;;;;;;;0.67;0.67;;;19.10;99.90;;;;;;5014615;28;20646;-66
2021/07/15 07:25:21;;;;;;;0.60;0.40;;;19.20;99.90;;;;;;5014443;28;20588;-67
2021/07/15 07:27:47;;;;;;;0.30;0.30;;;19.30;99.90;;;;;;5014425;28;20205;-67
2021/07/15 07:30:16;;;;;;;0.40;0.40;;;19.30;99.90;;;;;;5014524;28;20171;-66
2021/07/15 07:32:43;;;;;;;0.50;0.50;;;19.30;99.90;;;;;;5013485;28;20527;-66
2021/07/15 07:35:10;;;;;;;1.20;0.30;;;19.40;99.90;;;;;;5014306;28;20495;-66
2021/07/15 07:37:36;;;;;;;0.50;0.40;;;19.40;99.90;;;;;;5033539;28;20425;-69
2021/07/15 07:40:05;;;;;;;0.77;0.53;;;19.40;99.90;;;;;;5034007;28;20523;-68
2021/07/15 07:42:31;;;;;;;0.70;0.40;;;19.40;99.90;;;;;;5034141;28;20851;-68
2021/07/15 07:44:56;;;;;;;0.40;0.30;;;19.50;99.90;;;;;;5033696;28;20501;-67
2021/07/15 07:47:22;;;;;;;0.30;0.30;;;19.40;99.90;;;;;;5033437;28;20174;-67
2021/07/15 07:49:48;;;;;;;5.30;4.27;;;19.40;99.90;;;;;;5033551;28;20653;-67
2021/07/15 07:52:14;;;;;;;2.03;1.60;;;19.40;99.90;;;;;;5033890;28;20930;-67
2021/07/15 07:54:39;;;;;;;0.50;0.50;;;19.50;99.90;;;;;;5033709;28;20225;-66
2021/07/15 07:57:05;;;;;;;0.30;0.30;;;19.50;99.90;;;;;;5033627;28;20193;-66
2021/07/15 07:59:31;;;;;;;0.50;0.40;;;19.70;99.90;;;;;;5033201;28;20232;-67
2021/07/15 08:01:56;;;;;;;0.97;0.40;;;19.80;99.90;;;;;;5033458;28;20192;-67
2021/07/15 08:04:22;;;;;;;0.40;0.40;;;19.90;99.90;;;;;;5033069;28;20622;-67
2021/07/15 08:06:49;;;;;;;1.47;0.57;;;20.00;99.90;;;;;;5033433;28;20178;-65
2021/07/15 08:09:22;;;;;;;0.30;0.30;;;20.00;99.90;;;;;;5033194;28;20216;-67
2021/07/15 08:11:49;;;;;;;0.40;0.40;;;20.00;99.90;;;;;;5033441;28;20933;-67
2021/07/15 08:14:15;;;;;;;1.27;0.50;;;20.00;99.90;;;;;;5033091;28;20443;-68
2021/07/15 08:16:41;;;;;;;3.40;0.50;;;20.00;99.90;;;;;;5033642;28;20878;-70
2021/07/15 08:19:07;;;;;;;0.40;0.40;;;20.10;99.90;;;;;;5032804;28;20899;-68
2021/07/15 08:21:34;;;;;;;0.60;0.40;;;20.10;99.90;;;;;;5031022;28;20407;-68
2021/07/15 08:23:59;;;;;;;0.30;0.30;;;20.00;99.90;;;;;;5032716;28;20206;-68
2021/07/15 08:26:25;;;;;;;0.40;0.40;;;19.90;99.90;;;;;;5033039;28;20445;-68
2021/07/15 08:28:51;;;;;;;0.50;0.50;;;19.80;99.90;;;;;;5032854;28;20575;-68
2021/07/15 08:31:16;;;;;;;0.43;0.40;;;19.80;99.90;;;;;;5033166;28;20185;-68
2021/07/15 08:33:42;;;;;;;2.00;0.47;;;19.70;99.90;;;;;;5031622;28;20343;-68
2021/07/15 08:36:09;;;;;;;0.30;0.30;;;19.60;99.90;;;;;;5031877;28;20178;-67
2021/07/15 08:38:34;;;;;;;0.43;0.43;;;19.60;99.90;;;;;;5032790;28;20387;-67
2021/07/15 08:41:00;;;;;;;0.80;0.60;;;19.60;99.90;;;;;;5032841;28;20926;-66
2021/07/15 08:43:26;;;;;;;0.70;0.70;;;19.60;99.90;;;;;;5031614;28;20277;-67
2021/07/15 08:45:52;;;;;;;0.50;0.50;;;19.50;99.90;;;;;;5033221;28;20167;-66
2021/07/15 08:48:22;;;;;;;1.47;0.37;;;19.40;99.90;;;;;;5032820;28;20387;-66
2021/07/15 08:50:51;;;;;;;0.40;0.40;;;19.40;99.90;;;;;;5033203;28;20194;-66
2021/07/15 08:53:20;;;;;;;0.70;0.50;;;19.40;99.90;;;;;;5032937;28;20445;-66
2021/07/15 08:58:20;;;;;;;0.50;0.50;;;19.60;99.90;;;;;;5032787;28;20834;-67
2021/07/15 09:00:46;;;;;;;2.00;0.63;;;19.70;99.90;;;;;;5033082;28;20412;-66
2021/07/15 09:03:13;;;;;;;0.50;0.50;;;19.70;99.90;;;;;;5033104;28;20822;-66
2021/07/15 09:05:40;;;;;;;0.40;0.40;;;19.80;99.90;;;;;;5032893;28;20440;-66
2021/07/15 09:08:06;;;;;;;0.50;0.50;;;19.80;99.90;;;;;;5032901;28;20784;-66
2021/07/15 09:10:32;;;;;;;0.40;0.30;;;20.00;99.90;;;;;;5033182;28;20466;-66
2021/07/15 09:13:03;;;;;;;0.50;0.50;;;20.20;99.90;;;;;;5033107;28;20453;-66
2021/07/15 09:15:28;;;;;;;1.50;0.50;;;20.30;99.90;;;;;;5032642;28;20556;-65
2021/07/15 09:17:54;;;;;;;0.83;0.40;;;20.40;99.90;;;;;;5032727;28;20475;-66
2021/07/15 09:20:24;;;;;;;0.43;0.43;;;20.50;99.90;;;;;;5033250;28;20167;-67
2021/07/15 09:23:02;;;;;;;0.67;0.67;;;20.50;99.90;;;;;;5033122;28;20178;-67
2021/07/15 09:25:49;;;;;;;0.73;0.60;;;20.50;99.90;;;;;;5032966;28;20411;-66
2021/07/15 09:28:17;;;;;;;0.60;0.60;;;20.40;99.90;;;;;;5032225;28;20461;-66
2021/07/15 09:30:44;;;;;;;1.83;0.50;;;20.30;99.90;;;;;;5033033;28;20894;-68
2021/07/15 09:33:12;;;;;;;1.23;0.80;;;20.30;99.90;;;;;;5033104;28;20460;-67
2021/07/15 09:35:41;;;;;;;0.47;0.47;;;20.30;99.90;;;;;;5033219;28;20409;-67
2021/07/15 09:38:26;;;;;;;0.87;0.50;;;20.40;99.90;;;;;;5032738;28;20479;-66
2021/07/15 09:41:00;;;;;;;0.50;0.47;;;20.50;99.90;;;;;;5032103;28;20499;-66
2021/07/15 09:43:32;;;;;;;0.43;0.40;;;20.60;99.90;;;;;;5032947;28;20398;-68
2021/07/15 09:46:15;;;;;;;0.50;0.50;;;20.80;99.90;;;;;;5032909;28;20408;-68
2021/07/15 09:48:43;;;;;;;0.50;0.50;;;20.90;99.90;;;;;;5032304;28;20437;-67
2021/07/15 09:51:12;;;;;;;1.03;0.50;;;21.10;99.90;;;;;;5032787;28;20410;-67
2021/07/15 09:53:38;;;;;;;0.40;0.40;;;21.20;99.90;;;;;;5032669;28;20823;-66
2021/07/15 09:56:08;;;;;;;2.67;2.23;;;21.30;99.90;;;;;;5032504;28;20462;-65
2021/07/15 09:58:36;;;;;;;2.10;0.80;;;21.40;99.90;;;;;;5035752;28;20538;-65
2021/07/15 10:01:22;;;;;;;0.57;0.57;;;21.50;99.90;;;;;;5034742;28;20506;-67
2021/07/15 10:03:54;;;;;;;0.50;0.50;;;21.60;99.90;;;;;;5035748;28;20961;-66
2021/07/15 10:06:20;;;;;;;0.40;0.40;;;21.70;99.90;;;;;;5035849;28;20420;-68
2021/07/15 10:08:52;;;;;;;0.60;0.60;;;21.90;99.90;;;;;;5034275;28;20391;-68
2021/07/15 10:11:28;;;;;;;1.13;0.40;;;22.30;99.90;;;;;;5028510;28;20400;-68
2021/07/15 10:14:04;;;;;;;0.40;0.40;;;22.90;99.90;;;;;;5015850;28;20460;-68
2021/07/15 10:16:32;;;;;;;0.70;0.63;;;23.50;99.90;;;;;;5015800;28;20392;-66
2021/07/15 10:18:58;;;;;;;0.40;0.40;;;23.90;99.90;;;;;;5015366;28;20444;-66
2021/07/15 10:21:26;;;;;;;0.40;0.40;;;24.40;99.90;;;;;;5016001;28;20392;-67
2021/07/15 10:23:52;;;;;;;0.37;0.37;;;25.40;99.90;;;;;;5016946;28;20401;-68
2021/07/15 10:26:18;;;;;;;0.50;0.50;;;26.30;98.00;;;;;;5035846;28;20445;-67
2021/07/15 10:28:46;;;;;;;0.87;0.60;;;27.20;96.40;;;;;;5035197;28;20453;-67
2021/07/15 10:31:13;;;;;;;0.40;0.40;;;28.10;94.90;;;;;;5035305;28;20691;-68
2021/07/15 10:33:41;;;;;;;4.73;0.67;;;28.80;94.30;;;;;;5035351;28;20435;-67
2021/07/15 10:36:07;;;;;;;0.57;0.57;;;29.60;91.50;;;;;;5035641;28;20827;-68
2021/07/15 10:38:44;;;;;;;0.80;0.80;;;29.90;90.00;;;;;;5034557;28;20486;-67
2021/07/15 10:41:11;;;;;;;0.50;0.50;;;29.10;90.60;;;;;;5035505;28;20185;-67
2021/07/15 10:43:38;;;;;;;0.60;0.60;;;28.50;90.90;;;;;;5035212;28;20436;-67
2021/07/15 10:46:06;;;;;;;1.43;0.63;;;27.90;90.80;;;;;;5035185;28;20742;-65
2021/07/15 10:48:34;;;;;;;0.70;0.70;;;27.30;92.30;;;;;;5034842;28;20410;-66
2021/07/15 10:51:02;;;;;;;0.40;0.40;;;27.10;93.50;;;;;;5035496;28;20384;-65
2021/07/15 10:53:29;;;;;;;0.60;0.53;;;27.10;94.50;;;;;;5034969;28;20823;-67
2021/07/15 10:55:55;;;;;;;0.97;0.60;;;26.90;94.50;;;;;;5035102;28;20408;-66
2021/07/15 10:58:43;;;;;;;0.60;0.60;;;26.50;95.10;;;;;;5034646;28;20409;-66
2021/07/15 11:01:11;;;;;;;0.60;0.60;;;25.90;95.60;;;;;;5034756;28;20842;-66
2021/07/15 11:03:36;;;;;;;1.30;0.43;;;25.10;96.50;;;;;;5034242;28;20411;-67
2021/07/15 11:06:03;;;;;;;0.50;0.50;;;24.60;97.60;;;;;;5034417;28;20408;-67
2021/07/15 11:08:43;;;;;;;0.90;0.53;;;24.30;97.80;;;;;;5033881;28;20668;-66
2021/07/15 11:11:10;;;;;;;1.13;0.60;;;24.00;98.50;;;;;;5034525;28;20889;-66
2021/07/15 11:13:36;;;;;;;0.87;0.87;;;23.90;98.60;;;;;;5034522;28;20457;-66
2021/07/15 11:16:04;;;;;;;0.90;0.60;;;23.80;98.70;;;;;;5034544;28;20405;-66
2021/07/15 11:21:26;;;;;;;0.70;0.70;;;24.00;99.40;;;;;;5034603;28;20986;-66
2021/07/15 11:24:20;;;;;;;0.43;0.43;;;24.30;99.90;;;;;;5034074;28;20408;-66
2021/07/15 11:26:46;;;;;;;0.87;0.87;;;24.40;99.50;;;;;;5028588;28;20626;-66
2021/07/15 11:29:13;;;;;;;0.50;0.50;;;24.60;99.50;;;;;;5026566;28;20431;-66
2021/07/15 11:31:47;;;;;;;1.47;0.43;;;24.80;99.30;;;;;;5034425;28;20212;-65
2021/07/15 11:34:39;;;;;;;0.60;0.60;;;24.80;99.40;;;;;;5014506;28;20409;-66
2021/07/15 11:37:31;;;;;;;0.70;0.70;;;24.50;99.80;;;;;;5022678;28;20815;-66
2021/07/15 11:39:58;;;;;;;1.50;0.50;;;24.40;99.90;;;;;;5034194;28;20426;-66
2021/07/15 11:42:27;;;;;;;0.83;0.80;;;24.30;99.90;;;;;;5034256;28;20966;-66
2021/07/15 11:44:58;;;;;;;0.70;0.70;;;24.20;99.90;;;;;;5032724;28;20423;-67
2021/07/15 11:47:42;;;;;;;2.30;0.60;;;24.20;99.90;;;;;;5033674;28;20384;-65
2021/07/15 11:50:30;;;;;;;0.70;0.70;;;24.20;99.90;;;;;;5033859;28;20384;-65
2021/07/15 11:53:18;;;;;;;0.60;0.60;;;24.40;99.90;;;;;;5033504;28;20443;-66
2021/07/15 11:55:48;;;;;;;0.63;0.40;;;24.60;99.90;;;;;;5034132;28;20431;-67
2021/07/15 11:58:39;;;;;;;0.50;0.40;;;24.70;99.90;;;;;;5033549;28;20401;-65
2021/07/15 12:01:20;;;;;;;0.50;0.50;;;24.90;99.90;;;;;;5034003;28;20403;-65
2021/07/15 12:04:05;;;;;;;1.20;0.63;;;24.90;99.50;;;;;;5033739;28;20439;-64
2021/07/15 12:06:42;;;;;;;1.70;0.70;;;24.80;99.70;;;;;;5033560;28;20412;-65
2021/07/15 12:09:13;;;;;;;0.57;0.57;;;24.80;99.60;;;;;;5033602;28;20499;-64
2021/07/15 12:11:43;;;;;;;0.60;0.60;;;24.60;99.40;;;;;;5033772;28;20447;-64
2021/07/15 12:14:09;;;;;;;0.63;0.63;;;24.40;99.90;;;;;;5033621;28;20775;-68
2021/07/15 12:16:42;;;;;;;0.60;0.60;;;24.20;99.90;;;;;;5033865;28;20381;-64
2021/07/15 12:19:10;;;;;;;0.60;0.60;;;24.10;99.90;;;;;;5032734;28;20448;-64
2021/07/15 12:21:38;;;;;;;0.43;0.43;;;24.10;99.90;;;;;;5033214;28;20487;-64
2021/07/15 12:24:14;;;;;;;0.60;0.50;;;24.20;99.90;;;;;;5033463;28;20440;-64
2021/07/15 12:26:40;;;;;;;0.57;0.57;;;24.30;99.90;;;;;;5033612;28;20428;-64
2021/07/15 12:29:11;;;;;;;0.60;0.50;;;24.40;99.90;;;;;;5033061;28;20388;-64
2021/07/15 12:31:37;;;;;;;0.60;0.47;;;24.50;99.90;;;;;;5032894;28;20462;-63
2021/07/15 12:34:07;;;;;;;0.53;0.53;;;24.40;99.90;;;;;;5033324;28;20406;-66
2021/07/15 12:36:34;;;;;;;0.70;0.70;;;24.40;99.90;;;;;;5033489;28;20411;-65
2021/07/15 12:39:04;;;;;;;0.80;0.63;;;24.30;99.90;;;;;;5031617;28;20384;-65
2021/07/15 12:41:41;;;;;;;0.80;0.53;;;24.20;99.90;;;;;;5033538;28;20405;-64
2021/07/15 12:44:14;;;;;;;0.50;0.50;;;24.10;99.90;;;;;;5031942;28;20450;-65
2021/07/15 12:46:44;;;;;;;0.40;0.40;;;24.20;99.90;;;;;;5032860;28;20421;-67
2021/07/15 12:49:14;;;;;;;0.60;0.53;;;24.20;99.90;;;;;;5032759;28;20449;-69
2021/07/15 12:51:44;;;;;;;0.50;0.50;;;24.20;99.90;;;;;;5024424;28;20485;-68
2021/07/15 12:54:13;;;;;;;0.90;0.80;;;24.20;99.90;;;;;;5013352;28;20425;-68
2021/07/15 12:56:40;;;;;;;0.53;0.53;;;24.30;99.90;;;;;;5013526;28;20377;-68
2021/07/15 12:59:10;;;;;;;0.70;0.70;;;24.20;99.90;;;;;;5013109;28;20385;-69
2021/07/15 13:01:43;;;;;;;0.63;0.60;;;24.30;99.90;;;;;;5027428;28;20460;-70